createdAt,value
2018-06-12T00:01:49.837Z,19.10
2018-06-12T00:04:18.270Z,16.40
2018-06-12T00:06:46.710Z,19.00
2018-06-12T00:09:15.117Z,15.60
2018-06-12T00:11:43.570Z,16.13
2018-06-12T00:14:12.014Z,19.73
2018-06-12T00:16:40.465Z,15.57
2018-06-12T00:19:08.878Z,19.63
2018-06-12T00:21:37.329Z,14.27
2018-06-12T00:24:05.869Z,15.90
2018-06-12T00:26:34.285Z,19.40
2018-06-12T00:29:02.721Z,15.87
2018-06-12T00:31:31.150Z,17.10
2018-06-12T00:33:59.642Z,14.63
2018-06-12T00:36:28.053Z,22.27
2018-06-12T00:38:56.497Z,16.13
2018-06-12T00:41:24.918Z,20.27
2018-06-12T00:43:53.409Z,17.67
2018-06-12T00:46:21.885Z,18.67
2018-06-12T00:48:50.363Z,17.13
2018-06-12T00:51:18.781Z,15.63
2018-06-12T00:53:47.252Z,19.43
2018-06-12T00:56:26.909Z,17.03
2018-06-12T00:58:55.365Z,17.77
2018-06-12T01:01:23.801Z,15.60
2018-06-12T01:03:52.253Z,21.37
2018-06-12T01:06:20.663Z,14.10
2018-06-12T01:08:49.102Z,18.03
2018-06-12T01:11:17.537Z,16.30
2018-06-12T01:13:45.978Z,15.50
2018-06-12T01:16:14.396Z,14.93
2018-06-12T01:18:42.832Z,16.60
2018-06-12T01:21:11.282Z,21.33
2018-06-12T01:23:39.725Z,29.13
2018-06-12T01:26:08.142Z,20.33
2018-06-12T01:28:36.577Z,23.87
2018-06-12T01:31:05.058Z,15.33
2018-06-12T01:33:33.513Z,18.53
2018-06-12T01:36:01.936Z,18.90
2018-06-12T01:38:30.350Z,18.50
2018-06-12T01:40:58.789Z,16.93
2018-06-12T01:43:27.202Z,16.43
2018-06-12T01:45:55.648Z,25.37
2018-06-12T01:48:24.077Z,18.67
2018-06-12T01:50:52.506Z,15.43
2018-06-12T01:53:20.909Z,16.47
2018-06-12T01:55:49.346Z,15.53
2018-06-12T01:58:17.753Z,15.90
2018-06-12T02:00:46.192Z,18.13
2018-06-12T02:03:14.617Z,15.80
2018-06-12T02:05:43.058Z,18.47
2018-06-12T02:08:11.466Z,15.30
2018-06-12T02:10:39.897Z,24.83
2018-06-12T02:13:08.317Z,18.43
2018-06-12T02:15:36.784Z,20.40
2018-06-12T02:18:05.231Z,19.37
2018-06-12T02:20:33.677Z,16.97
2018-06-12T02:23:02.127Z,21.30
2018-06-12T02:25:30.557Z,16.23
2018-06-12T02:27:58.978Z,18.33
2018-06-12T02:30:27.418Z,15.87
2018-06-12T02:32:55.864Z,24.60
2018-06-12T02:35:24.326Z,16.47
2018-06-12T02:37:52.754Z,17.47
2018-06-12T02:40:21.191Z,19.43
2018-06-12T02:42:49.639Z,21.63
2018-06-12T02:45:18.070Z,19.40
2018-06-12T02:47:46.509Z,19.60
2018-06-12T02:50:14.938Z,15.20
2018-06-12T02:52:43.358Z,19.50
2018-06-12T02:55:11.794Z,15.20
2018-06-12T02:57:40.214Z,15.40
2018-06-12T03:00:08.657Z,21.90
2018-06-12T03:02:37.078Z,15.00
2018-06-12T03:05:05.563Z,14.20
2018-06-12T03:07:33.983Z,15.27
2018-06-12T03:10:02.398Z,16.50
2018-06-12T03:12:30.942Z,14.13
2018-06-12T03:14:59.361Z,15.70
2018-06-12T03:17:27.798Z,15.77
2018-06-12T03:19:56.198Z,16.03
2018-06-12T03:22:24.714Z,14.60
2018-06-12T03:24:53.182Z,19.13
2018-06-12T03:27:21.611Z,15.13
2018-06-12T03:29:50.034Z,15.17
2018-06-12T03:32:18.469Z,16.47
2018-06-12T03:34:46.884Z,16.77
2018-06-12T03:37:15.298Z,14.70
2018-06-12T03:39:43.700Z,14.30
2018-06-12T03:42:12.122Z,16.33
2018-06-12T03:44:40.505Z,13.97
2018-06-12T03:47:08.901Z,14.33
2018-06-12T03:49:37.286Z,22.50
2018-06-12T03:52:05.714Z,15.80
2018-06-12T03:54:34.102Z,20.53
2018-06-12T03:57:02.507Z,14.43
2018-06-12T03:59:30.905Z,12.87
2018-06-12T04:01:59.348Z,17.67
2018-06-12T04:04:27.731Z,24.37
2018-06-12T04:06:56.137Z,13.53
2018-06-12T04:09:24.610Z,11.50
2018-06-12T04:11:52.993Z,14.20
2018-06-12T04:14:21.402Z,13.23
2018-06-12T04:16:49.906Z,16.33
2018-06-12T04:19:18.287Z,14.77
2018-06-12T04:21:46.669Z,15.37
2018-06-12T04:24:15.089Z,13.43
2018-06-12T04:26:43.470Z,19.30
2018-06-12T04:29:11.952Z,14.43
2018-06-12T04:31:40.333Z,15.67
2018-06-12T04:34:08.827Z,12.93
2018-06-12T04:36:37.237Z,16.73
2018-06-12T04:39:06.806Z,17.00
2018-06-12T04:41:35.208Z,13.93
2018-06-12T04:44:03.670Z,14.20
2018-06-12T04:46:32.137Z,16.50
2018-06-12T04:49:00.610Z,12.90
2018-06-12T04:51:29.101Z,12.70
2018-06-12T04:53:57.573Z,13.77
2018-06-12T04:56:25.995Z,21.30
2018-06-12T04:58:54.426Z,17.23
2018-06-12T05:01:22.854Z,17.50
2018-06-12T05:03:51.289Z,13.80
2018-06-12T05:06:19.713Z,19.90
2018-06-12T05:08:48.187Z,15.70
2018-06-12T05:11:16.593Z,19.37
2018-06-12T05:13:45.023Z,20.20
2018-06-12T05:16:13.473Z,13.80
2018-06-12T05:18:41.899Z,16.90
2018-06-12T05:21:10.314Z,16.03
2018-06-12T05:23:38.750Z,14.43
2018-06-12T05:26:07.185Z,16.20
2018-06-12T05:28:35.634Z,18.47
2018-06-12T05:31:04.059Z,16.30
2018-06-12T05:33:32.469Z,16.30
2018-06-12T05:36:00.881Z,14.90
2018-06-12T05:38:29.282Z,13.40
2018-06-12T05:40:57.689Z,15.53
2018-06-12T05:43:26.098Z,16.40
2018-06-12T05:45:54.538Z,15.00
2018-06-12T05:48:22.921Z,14.83
2018-06-12T05:50:51.581Z,15.93
2018-06-12T05:53:20.010Z,14.17
2018-06-12T05:55:48.466Z,13.33
2018-06-12T05:58:16.866Z,13.10
2018-06-12T06:00:45.278Z,12.30
2018-06-12T06:03:13.670Z,11.70
2018-06-12T06:05:42.086Z,13.97
2018-06-12T06:08:10.470Z,11.60
2018-06-12T06:10:38.636Z,14.10
2018-06-12T06:13:07.026Z,11.27
2018-06-12T06:15:35.445Z,12.50
2018-06-12T06:18:03.896Z,11.07
2018-06-12T06:20:32.314Z,11.17
2018-06-12T06:23:00.703Z,9.93
2018-06-12T06:25:29.133Z,12.37
2018-06-12T06:27:57.530Z,14.50
2018-06-12T06:30:25.946Z,12.37
2018-06-12T06:32:54.382Z,13.20
2018-06-12T06:35:22.839Z,15.50
2018-06-12T06:37:51.233Z,14.13
2018-06-12T06:40:19.691Z,15.60
2018-06-12T06:42:48.098Z,12.77
2018-06-12T06:45:16.534Z,10.53
2018-06-12T06:47:44.961Z,13.63
2018-06-12T06:50:13.374Z,13.50
2018-06-12T06:52:41.825Z,13.47
2018-06-12T06:55:10.226Z,13.23
2018-06-12T06:57:38.665Z,13.90
2018-06-12T07:00:07.111Z,11.97
2018-06-12T07:02:35.538Z,14.87
2018-06-12T07:05:04.038Z,12.43
2018-06-12T07:07:32.467Z,12.40
2018-06-12T07:10:00.877Z,14.17
2018-06-12T07:12:29.325Z,16.10
2018-06-12T07:14:57.795Z,12.40
2018-06-12T07:17:26.165Z,12.20
2018-06-12T07:19:54.563Z,15.70
2018-06-12T07:22:23.007Z,12.67
2018-06-12T07:24:51.414Z,12.13
2018-06-12T07:27:19.841Z,14.27
2018-06-12T07:29:48.255Z,14.17
2018-06-12T07:32:16.715Z,12.30
2018-06-12T07:34:45.125Z,13.47
2018-06-12T07:37:13.558Z,15.53
2018-06-12T07:39:42.014Z,14.17
2018-06-12T07:42:10.481Z,18.03
2018-06-12T07:44:38.906Z,15.93
2018-06-12T07:47:07.321Z,15.93
2018-06-12T07:49:35.750Z,14.97
2018-06-12T07:52:03.861Z,16.87
2018-06-12T07:54:32.309Z,15.00
2018-06-12T07:57:00.726Z,14.57
2018-06-12T07:59:29.154Z,14.23
2018-06-12T08:01:57.575Z,14.63
2018-06-12T08:04:26.016Z,18.77
2018-06-12T08:06:54.456Z,17.93
2018-06-12T08:09:22.883Z,18.73
2018-06-12T08:11:51.295Z,15.30
2018-06-12T08:14:19.717Z,17.07
2018-06-12T08:16:47.821Z,13.33
2018-06-12T08:19:16.252Z,18.40
2018-06-12T08:21:44.675Z,15.57
2018-06-12T08:24:13.105Z,16.13
2018-06-12T08:26:41.510Z,14.50
2018-06-12T08:29:10.002Z,16.30
2018-06-12T08:31:38.431Z,13.20
2018-06-12T08:34:06.958Z,15.67
2018-06-12T08:36:35.366Z,14.17
2018-06-12T08:39:05.861Z,13.90
2018-06-12T08:41:34.258Z,13.23
2018-06-12T08:44:02.897Z,13.73
2018-06-12T08:46:31.331Z,15.70
2018-06-12T08:48:59.762Z,17.67
2018-06-12T08:51:28.189Z,17.57
2018-06-12T08:53:56.626Z,22.07
2018-06-12T08:56:25.046Z,15.07
2018-06-12T08:58:53.470Z,14.10
2018-06-12T09:01:21.877Z,16.50
2018-06-12T09:03:50.310Z,15.43
2018-06-12T09:06:18.725Z,16.83
2018-06-12T09:08:47.129Z,16.10
2018-06-12T09:11:15.573Z,14.80
2018-06-12T09:13:43.981Z,16.37
2018-06-12T09:16:12.429Z,17.40
2018-06-12T09:18:40.837Z,17.53
2018-06-12T09:21:09.263Z,14.37
2018-06-12T09:23:37.693Z,17.57
2018-06-12T09:26:06.126Z,18.47
2018-06-12T09:28:34.581Z,14.13
2018-06-12T09:31:03.009Z,16.73
2018-06-12T09:33:31.421Z,14.73
2018-06-12T09:36:05.115Z,13.70
2018-06-12T09:38:33.509Z,13.13
2018-06-12T09:41:01.919Z,15.43
2018-06-12T09:43:30.334Z,13.40
2018-06-12T09:45:58.742Z,20.20
2018-06-12T09:48:27.137Z,14.70
2018-06-12T09:50:55.558Z,17.40
2018-06-12T09:53:23.965Z,15.30
2018-06-12T09:55:52.389Z,18.33
2018-06-12T09:58:20.765Z,14.57
2018-06-12T10:01:25.159Z,14.50
2018-06-12T10:03:53.862Z,13.77
2018-06-12T10:06:22.269Z,16.57
2018-06-12T10:08:50.726Z,15.53
2018-06-12T10:11:19.133Z,14.23
2018-06-12T10:13:47.517Z,13.73
2018-06-12T10:16:15.922Z,15.10
2018-06-12T10:18:44.356Z,15.40
2018-06-12T10:21:12.765Z,15.70
2018-06-12T10:23:41.149Z,14.47
2018-06-12T10:26:09.558Z,15.40
2018-06-12T10:28:37.973Z,16.90
2018-06-12T10:31:06.426Z,14.00
2018-06-12T10:33:34.845Z,13.40
2018-06-12T10:36:03.247Z,14.90
2018-06-12T10:38:31.682Z,14.47
2018-06-12T10:41:00.076Z,17.80
2018-06-12T10:43:28.489Z,16.27
2018-06-12T10:45:56.870Z,16.00
2018-06-12T10:48:25.281Z,16.37
2018-06-12T10:50:53.678Z,21.50
2018-06-12T10:53:22.077Z,17.03
2018-06-12T10:55:50.508Z,15.53
2018-06-12T10:58:18.969Z,18.90
2018-06-12T11:00:47.423Z,19.70
2018-06-12T11:03:15.850Z,19.87
2018-06-12T11:05:44.806Z,21.50
2018-06-12T11:08:13.245Z,17.77
2018-06-12T11:10:41.650Z,20.80
2018-06-12T11:13:10.062Z,20.93
2018-06-12T11:15:38.471Z,21.77
2018-06-12T11:18:06.971Z,16.33
2018-06-12T11:20:35.381Z,21.57
2018-06-12T11:23:03.840Z,22.30
2018-06-12T11:25:32.245Z,20.57
2018-06-12T11:28:00.681Z,19.97
2018-06-12T11:30:29.111Z,22.47
2018-06-12T11:32:57.590Z,17.90
2018-06-12T11:35:25.941Z,20.67
2018-06-12T11:37:54.378Z,18.77
2018-06-12T11:40:22.879Z,21.97
2018-06-12T11:42:51.289Z,21.10
2018-06-12T11:45:19.682Z,17.83
2018-06-12T11:47:48.147Z,19.83
2018-06-12T11:50:16.569Z,21.10
2018-06-12T11:52:44.953Z,17.20
2018-06-12T11:55:13.390Z,15.67
2018-06-12T11:57:41.788Z,15.27
2018-06-12T12:00:10.222Z,16.00
2018-06-12T12:02:38.602Z,15.60
2018-06-12T12:05:07.038Z,13.30
2018-06-12T12:07:35.458Z,18.80
2018-06-12T12:10:04.926Z,16.60
2018-06-12T12:12:33.323Z,15.10
2018-06-12T12:15:01.742Z,17.57
2018-06-12T12:17:30.138Z,15.97
2018-06-12T12:19:58.865Z,18.77
2018-06-12T12:22:27.259Z,14.90
2018-06-12T12:24:55.670Z,15.20
2018-06-12T12:27:24.054Z,17.37
2018-06-12T12:29:52.473Z,12.37
2018-06-12T12:32:20.895Z,15.70
2018-06-12T12:34:49.075Z,18.63
2018-06-12T12:37:17.565Z,16.50
2018-06-12T12:39:46.029Z,15.17
2018-06-12T12:42:14.469Z,43.97
2018-06-12T12:44:42.938Z,20.67
2018-06-12T12:47:11.401Z,13.20
2018-06-12T12:49:39.878Z,12.03
2018-06-12T12:52:08.297Z,11.07
2018-06-12T12:54:36.721Z,12.70
2018-06-12T12:57:05.254Z,12.43
2018-06-12T12:59:33.681Z,12.60
2018-06-12T13:02:02.412Z,14.50
2018-06-12T13:04:30.809Z,12.23
2018-06-12T13:06:59.246Z,14.37
2018-06-12T13:09:27.649Z,15.60
2018-06-12T13:11:56.107Z,11.20
2018-06-12T13:14:24.510Z,11.80
2018-06-12T13:16:52.934Z,9.40
2018-06-12T13:19:21.338Z,9.73
2018-06-12T13:21:49.778Z,11.40
2018-06-12T13:24:18.186Z,10.57
2018-06-12T13:26:46.617Z,9.00
2018-06-12T13:29:15.050Z,9.10
2018-06-12T13:31:43.498Z,8.90
2018-06-12T13:34:11.917Z,8.27
2018-06-12T13:36:40.341Z,11.77
2018-06-12T13:39:08.741Z,9.80
2018-06-12T13:41:37.161Z,8.63
2018-06-12T13:44:05.565Z,8.23
2018-06-12T13:46:34.055Z,9.40
2018-06-12T13:49:03.517Z,7.87
2018-06-12T13:51:32.044Z,10.97
2018-06-12T13:54:00.474Z,9.80
2018-06-12T13:56:28.913Z,11.63
2018-06-12T13:58:57.329Z,7.10
2018-06-12T14:01:25.769Z,7.73
2018-06-12T14:03:54.555Z,8.97
2018-06-12T14:06:22.974Z,9.13
2018-06-12T14:08:51.377Z,9.53
2018-06-12T14:11:19.814Z,11.30
2018-06-12T14:13:48.210Z,8.87
2018-06-12T14:16:16.637Z,6.60
2018-06-12T14:18:45.048Z,10.77
2018-06-12T14:21:13.456Z,8.33
2018-06-12T14:23:41.884Z,8.17
2018-06-12T14:26:10.286Z,6.73
2018-06-12T14:28:38.714Z,7.10
2018-06-12T14:31:07.138Z,13.63
2018-06-12T14:33:35.579Z,7.00
2018-06-12T14:36:03.970Z,8.30
2018-06-12T14:38:32.382Z,8.20
2018-06-12T14:41:00.771Z,6.47
2018-06-12T14:43:29.178Z,7.20
2018-06-12T14:45:57.558Z,9.20
2018-06-12T14:48:26.010Z,7.53
2018-06-12T14:50:54.390Z,9.43
2018-06-12T14:53:22.800Z,11.80
2018-06-12T14:55:51.191Z,10.10
2018-06-12T14:58:19.593Z,10.37
2018-06-12T15:00:48.799Z,8.87
2018-06-12T15:03:17.234Z,9.20
2018-06-12T15:05:45.624Z,9.07
2018-06-12T15:08:14.033Z,10.00
2018-06-12T15:10:42.434Z,8.37
2018-06-12T15:13:10.855Z,8.87
2018-06-12T15:15:39.274Z,9.37
2018-06-12T15:18:07.686Z,8.73
2018-06-12T15:20:36.081Z,10.43
2018-06-12T15:23:04.481Z,7.77
2018-06-12T15:25:32.882Z,9.17
2018-06-12T15:28:01.290Z,9.17
2018-06-12T15:30:29.705Z,7.40
2018-06-12T15:32:58.133Z,8.10
2018-06-12T15:35:26.541Z,7.50
2018-06-12T15:37:54.941Z,8.60
2018-06-12T15:40:23.378Z,10.63
2018-06-12T15:42:51.765Z,11.83
2018-06-12T15:45:20.163Z,7.40
2018-06-12T15:47:48.543Z,11.73
2018-06-12T15:50:17.002Z,8.03
2018-06-12T15:52:45.417Z,8.83
2018-06-12T15:55:13.830Z,10.40
2018-06-12T15:57:42.209Z,9.33
2018-06-12T16:00:10.614Z,7.73
2018-06-12T16:02:38.997Z,12.60
2018-06-12T16:05:07.421Z,8.50
2018-06-12T16:07:35.818Z,12.30
2018-06-12T16:10:04.259Z,7.80
2018-06-12T16:12:32.666Z,6.70
2018-06-12T16:15:01.078Z,6.90
2018-06-12T16:17:29.453Z,14.13
2018-06-12T16:19:57.849Z,8.37
2018-06-12T16:22:26.248Z,4.37
2018-06-12T16:24:54.651Z,5.57
2018-06-12T16:27:23.073Z,6.17
2018-06-12T16:29:51.494Z,7.57
2018-06-12T16:32:19.878Z,6.50
2018-06-12T16:34:48.326Z,6.10
2018-06-12T16:37:16.730Z,4.43
2018-06-12T16:39:45.158Z,5.13
2018-06-12T16:42:13.558Z,5.03
2018-06-12T16:44:41.970Z,6.23
2018-06-12T16:47:10.393Z,5.83
2018-06-12T16:49:38.823Z,5.93
2018-06-12T16:52:07.249Z,7.30
2018-06-12T16:54:35.646Z,5.50
2018-06-12T16:57:04.097Z,10.67
2018-06-12T16:59:32.533Z,7.60
2018-06-12T17:02:00.957Z,8.37
2018-06-12T17:04:29.368Z,9.47
2018-06-12T17:06:57.802Z,5.57
2018-06-12T17:09:26.249Z,6.33
2018-06-12T17:11:54.671Z,13.43
2018-06-12T17:14:23.090Z,6.90
2018-06-12T17:16:51.530Z,9.10
2018-06-12T17:19:19.953Z,6.00
2018-06-12T17:21:48.520Z,6.30
2018-06-12T17:24:16.931Z,6.47
2018-06-12T17:26:45.401Z,4.63
2018-06-12T17:29:13.838Z,5.60
2018-06-12T17:31:42.278Z,4.83
2018-06-12T17:34:10.713Z,7.43
2018-06-12T17:36:39.151Z,4.53
2018-06-12T17:39:08.025Z,6.10
2018-06-12T17:41:36.474Z,6.93
2018-06-12T17:44:04.886Z,10.83
2018-06-12T17:46:33.311Z,7.07
2018-06-12T17:49:01.713Z,5.60
2018-06-12T17:51:30.169Z,4.73
2018-06-12T17:53:58.583Z,11.00
2018-06-12T17:56:27.007Z,7.63
2018-06-12T17:58:55.409Z,6.07
2018-06-12T18:01:23.854Z,5.20
2018-06-12T18:03:52.257Z,5.93
2018-06-12T18:06:20.682Z,4.70
2018-06-12T18:08:49.078Z,6.20
2018-06-12T18:11:17.545Z,6.50
2018-06-12T18:13:45.950Z,6.10
2018-06-12T18:16:14.369Z,6.80
2018-06-12T18:18:42.789Z,6.30
2018-06-12T18:21:11.240Z,5.70
2018-06-12T18:23:39.694Z,5.03
2018-06-12T18:26:08.099Z,8.63
2018-06-12T18:28:36.526Z,9.60
2018-06-12T18:31:04.954Z,5.53
2018-06-12T18:33:33.385Z,5.20
2018-06-12T18:36:01.774Z,8.40
2018-06-12T18:38:30.191Z,8.50
2018-06-12T18:40:58.595Z,6.33
2018-06-12T18:43:27.002Z,6.40
2018-06-12T18:45:55.389Z,5.50
2018-06-12T18:48:23.798Z,5.90
2018-06-12T18:50:52.215Z,7.07
2018-06-12T18:53:20.683Z,8.80
2018-06-12T18:55:49.072Z,5.23
2018-06-12T18:58:17.478Z,7.50
2018-06-12T19:00:45.878Z,9.90
2018-06-12T19:03:14.289Z,8.57
2018-06-12T19:05:42.666Z,6.23
2018-06-12T19:08:11.071Z,9.73
2018-06-12T19:10:39.518Z,6.50
2018-06-12T19:13:07.933Z,6.53
2018-06-12T19:15:36.316Z,4.33
2018-06-12T19:18:04.978Z,9.70
2018-06-12T19:20:33.365Z,7.17
2018-06-12T19:23:01.774Z,7.10
2018-06-12T19:25:30.182Z,9.30
2018-06-12T19:27:58.593Z,7.00
2018-06-12T19:30:26.981Z,5.33
2018-06-12T19:32:55.445Z,4.37
2018-06-12T19:35:23.860Z,6.13
2018-06-12T19:37:52.273Z,4.03
2018-06-12T19:40:20.706Z,10.33
2018-06-12T19:42:49.121Z,6.93
2018-06-12T19:45:17.604Z,4.70
2018-06-12T19:47:46.120Z,7.27
2018-06-12T19:50:14.580Z,8.10
2018-06-12T19:52:42.989Z,9.37
2018-06-12T19:55:11.519Z,8.03
2018-06-12T19:57:39.925Z,8.17
2018-06-12T20:00:08.415Z,5.47
2018-06-12T20:02:36.817Z,5.00
2018-06-12T20:05:05.264Z,9.20
2018-06-12T20:07:33.722Z,6.07
2018-06-12T20:10:06.314Z,6.90
2018-06-12T20:12:34.977Z,7.47
2018-06-12T20:15:06.796Z,7.63
2018-06-12T20:17:35.600Z,8.73
2018-06-12T20:20:06.675Z,12.60
2018-06-12T20:22:35.776Z,6.43
2018-06-12T20:25:04.254Z,5.03
2018-06-12T20:27:32.674Z,5.77
2018-06-12T20:30:01.113Z,4.73
2018-06-12T20:32:29.505Z,9.50
2018-06-12T20:34:57.953Z,5.33
2018-06-12T20:37:26.350Z,7.00
2018-06-12T20:39:54.770Z,8.03
2018-06-12T20:42:23.258Z,5.33
2018-06-12T20:44:51.678Z,5.70
2018-06-12T20:47:20.090Z,7.90
2018-06-12T20:49:48.533Z,10.23
2018-06-12T20:52:16.929Z,8.20
2018-06-12T20:54:45.354Z,7.87
2018-06-12T20:57:13.792Z,8.90
2018-06-12T20:59:42.214Z,5.07
2018-06-12T21:02:10.610Z,8.00
2018-06-12T21:04:39.061Z,6.23
2018-06-12T21:07:07.581Z,7.40
2018-06-12T21:09:35.918Z,5.90
2018-06-12T21:12:04.309Z,6.10
2018-06-12T21:14:32.710Z,6.20
2018-06-12T21:17:01.163Z,10.00
2018-06-12T21:19:29.574Z,6.10
2018-06-12T21:21:58.010Z,8.80
2018-06-12T21:24:26.415Z,5.10
2018-06-12T21:26:54.834Z,7.67
2018-06-12T21:29:23.248Z,5.10
2018-06-12T21:31:51.678Z,6.80
2018-06-12T21:34:20.134Z,5.70
2018-06-12T21:36:48.602Z,5.40
2018-06-12T21:39:17.029Z,9.40
2018-06-12T21:41:45.622Z,10.20
2018-06-12T21:44:14.030Z,8.17
2018-06-12T21:46:42.457Z,6.53
2018-06-12T21:49:10.873Z,9.53
2018-06-12T21:51:39.293Z,10.23
2018-06-12T21:54:07.701Z,6.43
2018-06-12T21:56:36.225Z,8.60
2018-06-12T21:59:04.866Z,8.00
2018-06-12T22:01:33.297Z,8.30
2018-06-12T22:04:01.706Z,10.63
2018-06-12T22:06:30.149Z,6.47
2018-06-12T22:08:58.562Z,8.20
2018-06-12T22:11:26.994Z,10.33
2018-06-12T22:13:55.438Z,9.17
2018-06-12T22:16:24.165Z,8.27
2018-06-12T22:18:53.181Z,9.80
2018-06-12T22:21:21.621Z,9.00
2018-06-12T22:23:50.036Z,11.10
2018-06-12T22:26:18.457Z,7.90
2018-06-12T22:28:46.870Z,9.80
2018-06-12T22:31:15.302Z,9.40
2018-06-12T22:33:43.714Z,11.50
2018-06-12T22:36:12.114Z,13.23
2018-06-12T22:38:40.494Z,11.27
2018-06-12T22:41:08.898Z,11.83
2018-06-12T22:43:37.344Z,12.70
2018-06-12T22:46:05.802Z,13.07
2018-06-12T22:48:34.193Z,13.73
2018-06-12T22:51:02.582Z,11.63
2018-06-12T22:53:30.989Z,11.70
2018-06-12T22:55:59.386Z,14.00
2018-06-12T22:58:27.813Z,14.23
2018-06-12T23:00:56.210Z,11.60
2018-06-12T23:03:24.609Z,9.73
2018-06-12T23:05:52.990Z,13.57
2018-06-12T23:08:21.429Z,15.40
2018-06-12T23:10:49.819Z,14.03
2018-06-12T23:13:18.219Z,10.57
2018-06-12T23:15:46.596Z,11.20
2018-06-12T23:18:15.846Z,14.37
2018-06-12T23:20:55.778Z,9.93
2018-06-12T23:23:24.177Z,14.40
2018-06-12T23:25:52.562Z,11.07
2018-06-12T23:28:20.975Z,10.73
2018-06-12T23:30:49.356Z,10.93
2018-06-12T23:33:17.797Z,12.33
2018-06-12T23:35:46.198Z,9.90
2018-06-12T23:38:14.634Z,11.70
2018-06-12T23:40:43.041Z,10.20
2018-06-12T23:43:11.462Z,13.90
2018-06-12T23:45:39.861Z,18.40
2018-06-12T23:48:08.289Z,9.60
2018-06-12T23:50:36.681Z,9.53
2018-06-12T23:53:05.098Z,13.27
2018-06-12T23:55:33.502Z,12.97
2018-06-12T23:58:01.977Z,12.00
